Time;durP1;ratioP1;P1;durP2;ratioP2;P2;SDS_P1;SDS_P2;PMS_P1;PMS_P2;Temp;Humidity;BMP_temperature;BMP_pressure;BME280_temperature;BME280_humidity;BME280_pressure;Samples;Min_cycle;Max_cycle;Signal;HPM_P1;HPM_P2
2021/01/28 00:00:15;;;;;;;9.38;6.03;;;;;;;2.79;54.83;98932.88;5090928;28;20369;-64
2021/01/28 00:02:41;;;;;;;10.20;5.75;;;;;;;2.83;55.10;98937.03;5107265;28;20150;-65
2021/01/28 00:05:07;;;;;;;8.73;5.70;;;;;;;2.79;55.04;98939.03;5110636;28;20126;-60
2021/01/28 00:07:33;;;;;;;9.68;5.97;;;;;;;2.83;54.95;98942.31;5105829;28;20067;-63
2021/01/28 00:09:58;;;;;;;9.18;6.10;;;;;;;2.82;55.30;98935.31;5103218;28;20036;-64
2021/01/28 00:12:24;;;;;;;10.65;5.68;;;;;;;2.81;55.11;98934.50;5103084;28;20481;-63
2021/01/28 00:14:49;;;;;;;10.10;5.97;;;;;;;2.80;55.34;98937.22;5090371;28;20044;-64
2021/01/28 00:17:15;;;;;;;11.48;7.10;;;;;;;2.56;55.22;98906.94;5095535;28;20317;-63
2021/01/28 00:19:40;;;;;;;18.83;9.70;;;;;;;2.80;55.42;98937.22;5108924;28;20046;-66
2021/01/28 00:22:06;;;;;;;12.95;7.35;;;;;;;2.78;55.61;98949.69;5110317;28;20059;-63
2021/01/28 00:24:32;;;;;;;11.40;7.00;;;;;;;2.67;55.38;98929.22;5110630;28;20569;-62
2021/01/28 00:26:57;;;;;;;13.88;7.75;;;;;;;2.53;56.05;98912.44;5109952;28;20365;-64
2021/01/28 00:29:23;;;;;;;13.88;8.02;;;;;;;2.65;56.22;98937.25;5108347;28;20500;-63
2021/01/28 00:31:49;;;;;;;13.55;7.30;;;;;;;2.55;56.10;98929.03;5110463;28;20031;-63
2021/01/28 00:34:15;;;;;;;13.07;7.50;;;;;;;2.54;56.55;98932.63;5090314;28;20382;-64
2021/01/28 00:36:40;;;;;;;12.88;7.82;;;;;;;2.43;56.61;98935.94;5090189;28;20493;-65
2021/01/28 00:39:06;;;;;;;10.60;7.38;;;;;;;2.17;56.62;98897.03;5090824;28;20032;-61
2021/01/28 00:41:31;;;;;;;14.52;7.90;;;;;;;1.91;57.00;98844.88;5091208;28;20115;-55
2021/01/28 00:43:57;;;;;;;13.55;8.02;;;;;;;2.32;56.65;98926.97;5110459;28;20070;-63
2021/01/28 00:46:23;;;;;;;10.85;7.57;;;;;;;2.37;56.64;98928.34;5110233;28;20064;-62
2021/01/28 00:48:49;;;;;;;12.25;7.53;;;;;;;2.36;56.82;98933.75;5110018;28;20376;-63
2021/01/28 00:51:15;;;;;;;13.60;8.10;;;;;;;2.28;56.63;98919.19;5093963;28;20044;-62
2021/01/28 00:53:40;;;;;;;13.75;8.30;;;;;;;2.35;57.09;98930.25;5091045;28;20038;-64
2021/01/28 00:56:06;;;;;;;14.73;8.50;;;;;;;2.38;57.02;98930.06;5089675;28;20032;-61
2021/01/28 00:58:31;;;;;;;12.63;8.55;;;;;;;2.42;56.80;98941.28;5089585;28;20036;-64
2021/01/28 01:00:57;;;;;;;13.50;8.65;;;;;;;2.45;56.67;98933.16;5089752;28;20042;-62
2021/01/28 01:03:25;;;;;;;13.80;8.70;;;;;;;2.47;57.14;98930.44;5091065;28;20489;-62
2021/01/28 01:05:52;;;;;;;13.65;8.40;;;;;;;2.44;56.88;98937.63;5089534;28;20055;-63
2021/01/28 01:08:22;;;;;;;15.73;7.82;;;;;;;2.44;56.78;98939.41;5089560;28;20028;-62
2021/01/28 01:10:52;;;;;;;14.32;8.45;;;;;;;2.43;56.98;98943.00;5089757;28;20072;-64
2021/01/28 01:13:21;;;;;;;13.07;7.85;;;;;;;2.38;57.03;98930.06;5102239;28;20047;-62
2021/01/28 01:15:47;;;;;;;14.95;8.48;;;;;;;2.30;56.64;98924.41;5089130;28;20440;-58
2021/01/28 01:18:16;;;;;;;13.55;8.32;;;;;;;2.39;56.89;98937.03;5105301;28;20059;-62
2021/01/28 01:20:41;;;;;;;14.70;8.75;;;;;;;2.23;56.84;98915.16;5110128;28;20043;-63
2021/01/28 01:23:07;;;;;;;14.50;8.43;;;;;;;2.19;57.13;98908.38;5109592;28;20341;-60
2021/01/28 01:25:33;;;;;;;13.45;8.25;;;;;;;1.94;57.09;98870.25;5107811;28;20028;-64
2021/01/28 01:27:58;;;;;;;12.80;8.32;;;;;;;2.33;56.83;98937.41;5109344;28;20042;-64
2021/01/28 01:30:25;;;;;;;15.43;8.75;;;;;;;2.37;56.93;98917.78;5109417;28;20381;-62
2021/01/28 01:32:50;;;;;;;20.85;9.20;;;;;;;1.94;57.17;98835.94;5100863;28;20046;-63
2021/01/28 01:35:19;;;;;;;14.23;8.20;;;;;;;2.53;57.02;98927.41;5090167;28;20028;-63
2021/01/28 01:37:45;;;;;;;11.13;8.23;;;;;;;2.36;56.49;98884.38;5089155;28;20036;-61
2021/01/28 01:40:16;;;;;;;14.00;9.82;;;;;;;2.55;56.71;98894.69;5089364;28;20349;-61
2021/01/28 01:42:47;;;;;;;15.02;8.68;;;;;;;2.71;56.74;98926.28;5089395;28;20048;-62
2021/01/28 01:45:13;;;;;;;12.77;8.52;;;;;;;2.33;56.61;98846.78;5089999;28;20089;-62
2021/01/28 01:47:53;;;;;;;13.85;8.90;;;;;;;2.75;56.33;98897.00;5089520;28;20065;-63
2021/01/28 01:50:31;;;;;;;14.85;8.07;;;;;;;2.73;56.50;98882.09;5089049;28;20032;-63
2021/01/28 01:52:58;;;;;;;13.02;8.23;;;;;;;2.88;56.71;98911.13;5089220;28;20040;-61
2021/01/28 01:55:27;;;;;;;12.60;7.78;;;;;;;2.89;56.26;98896.97;5090098;28;20032;-62
2021/01/28 01:57:56;;;;;;;13.68;8.23;;;;;;;2.73;56.10;98882.09;5088640;28;20044;-61
2021/01/28 02:00:22;;;;;;;16.65;8.43;;;;;;;2.89;56.82;98898.78;5091229;28;20039;-62
2021/01/28 02:02:55;;;;;;;15.95;9.02;;;;;;;2.80;56.10;98872.00;5092904;28;20058;-61
2021/01/28 02:05:34;;;;;;;13.40;7.93;;;;;;;2.56;56.72;98817.09;5074341;28;20135;-63
2021/01/28 02:08:00;;;;;;;15.25;8.98;;;;;;;3.03;56.23;98888.16;5093581;28;20079;-61
2021/01/28 02:10:26;;;;;;;13.20;7.90;;;;;;;3.05;56.12;98890.69;5093074;28;20509;-60
2021/01/28 02:12:53;;;;;;;14.48;8.52;;;;;;;2.98;56.34;98864.66;5092421;28;20035;-62
2021/01/28 02:15:23;;;;;;;13.20;8.55;;;;;;;3.11;56.05;98890.28;5093713;28;20032;-62
2021/01/28 02:17:52;;;;;;;13.73;8.02;;;;;;;3.11;56.38;98880.59;5086121;28;20044;-62
2021/01/28 02:20:38;;;;;;;13.82;8.57;;;;;;;3.11;55.92;98869.13;5092775;28;20035;-64
2021/01/28 02:23:14;;;;;;;17.60;8.75;;;;;;;3.17;55.72;98884.63;5092243;28;20539;-65
2021/01/28 02:25:41;;;;;;;15.55;8.02;;;;;;;3.16;55.69;98883.75;5092458;28;20047;-66
2021/01/28 02:28:11;;;;;;;11.93;8.25;;;;;;;3.18;55.62;98902.19;5093936;28;20036;-63
2021/01/28 02:30:38;;;;;;;13.90;8.27;;;;;;;3.14;55.39;98869.78;5092374;28;20405;-60
2021/01/28 02:33:06;;;;;;;14.57;8.55;;;;;;;3.04;55.17;98867.84;5094645;28;20051;-64
2021/01/28 02:35:34;;;;;;;12.07;8.45;;;;;;;3.20;55.24;98875.63;5092573;28;20036;-64
2021/01/28 02:38:05;;;;;;;12.77;8.02;;;;;;;3.08;55.12;98862.28;5093359;28;20035;-64
2021/01/28 02:40:31;;;;;;;14.73;9.20;;;;;;;3.21;55.02;98880.84;5092162;28;20485;-63
2021/01/28 02:42:57;;;;;;;16.98;10.25;;;;;;;3.21;54.92;98878.19;5091840;28;20142;-64
2021/01/28 02:45:28;;;;;;;12.90;8.43;;;;;;;3.24;55.64;98885.91;5092199;28;20111;-65
2021/01/28 02:47:55;;;;;;;14.40;9.02;;;;;;;3.18;55.27;98894.25;5092187;28;20039;-65
2021/01/28 02:50:21;;;;;;;14.40;9.40;;;;;;;3.09;55.08;98871.03;5092632;28;20447;-64
2021/01/28 02:52:47;;;;;;;20.50;9.27;;;;;;;3.20;55.23;98886.22;5091598;28;20040;-63
2021/01/28 02:55:15;;;;;;;14.13;8.90;;;;;;;3.05;55.18;98864.25;5091949;28;20036;-65
2021/01/28 02:57:41;;;;;;;13.20;8.75;;;;;;;3.11;55.29;98871.78;5092081;28;20023;-63
2021/01/28 03:00:12;;;;;;;13.88;8.80;;;;;;;3.22;55.66;98886.97;5093122;28;20375;-64
2021/01/28 03:02:38;;;;;;;14.10;9.35;;;;;;;3.08;55.64;98861.41;5091266;28;20067;-60
2021/01/28 03:05:04;;;;;;;15.65;8.35;;;;;;;3.24;55.42;98877.97;5092338;28;20464;-64
2021/01/28 03:07:30;;;;;;;14.88;8.68;;;;;;;3.25;55.43;98884.97;5100739;28;20080;-64
2021/01/28 03:09:56;;;;;;;13.65;8.57;;;;;;;3.28;55.71;98881.28;5110247;28;20040;-62
2021/01/28 03:12:22;;;;;;;12.77;8.20;;;;;;;3.11;55.73;98847.97;5111881;28;20023;-63
2021/01/28 03:14:47;;;;;;;16.80;9.93;;;;;;;3.33;55.37;98875.66;5111971;28;20412;-63
2021/01/28 03:17:13;;;;;;;17.15;9.15;;;;;;;3.34;55.63;98874.72;5111581;28;20492;-62
2021/01/28 03:19:38;;;;;;;16.75;10.43;;;;;;;3.47;54.41;98865.03;5111431;28;20070;-61
2021/01/28 03:22:04;;;;;;;16.65;9.15;;;;;;;3.29;54.82;98848.59;5098356;28;20058;-62
2021/01/28 03:24:29;;;;;;;19.67;10.70;;;;;;;3.40;54.53;98861.09;5111597;28;20047;-62
2021/01/28 03:26:55;;;;;;;19.77;11.10;;;;;;;3.33;54.88;98849.22;5110921;28;20023;-63
2021/01/28 03:29:21;;;;;;;21.98;10.98;;;;;;;3.39;54.50;98864.69;5111119;28;20034;-62
2021/01/28 03:31:46;;;;;;;16.25;10.13;;;;;;;3.28;54.30;98854.81;5102237;28;20476;-61
2021/01/28 03:34:12;;;;;;;15.85;9.80;;;;;;;3.11;54.57;98826.81;5090787;28;20050;-64
2021/01/28 03:36:38;;;;;;;14.93;9.32;;;;;;;3.24;55.11;98863.88;5091425;28;20028;-62
2021/01/28 03:39:05;;;;;;;17.90;8.80;;;;;;;3.40;54.10;98858.47;5090797;28;20126;-62
2021/01/28 03:41:30;;;;;;;18.50;9.93;;;;;;;3.03;53.99;98824.72;5107414;28;20035;-63
2021/01/28 03:43:56;;;;;;;16.80;9.35;;;;;;;3.26;54.86;98846.16;5111381;28;20401;-63
2021/01/28 03:46:21;;;;;;;19.55;10.15;;;;;;;3.17;54.81;98839.66;5107995;28;20019;-63
2021/01/28 03:48:47;;;;;;;16.67;9.52;;;;;;;3.34;55.00;98848.25;5110037;28;20081;-63
2021/01/28 03:51:12;;;;;;;16.73;9.63;;;;;;;3.43;54.58;98852.97;5111111;28;20039;-63
2021/01/28 03:53:38;;;;;;;16.35;9.80;;;;;;;3.34;54.95;98842.97;5109303;28;20469;-57
2021/01/28 03:56:03;;;;;;;20.83;10.15;;;;;;;3.26;55.37;98862.84;5111384;28;20090;-62
2021/01/28 03:58:29;;;;;;;18.40;9.65;;;;;;;3.35;55.19;98844.66;5110841;28;20040;-63
2021/01/28 04:00:54;;;;;;;17.33;10.20;;;;;;;3.35;55.53;98849.94;5110528;28;20511;-63
2021/01/28 04:03:29;;;;;;;17.13;10.63;;;;;;;3.33;55.49;98842.13;5109028;28;20116;-64
2021/01/28 04:06:06;;;;;;;18.92;11.35;;;;;;;3.21;56.05;98838.50;5111435;28;20371;-61
2021/01/28 04:08:31;;;;;;;18.52;11.23;;;;;;;3.10;56.16;98836.56;5101897;28;20058;-61
2021/01/28 04:10:57;;;;;;;23.77;12.57;;;;;;;3.12;57.21;98837.31;5090085;28;20129;-62
2021/01/28 04:13:22;;;;;;;20.65;12.15;;;;;;;3.01;57.27;98819.50;5091366;28;20400;-64
2021/01/28 04:15:48;;;;;;;22.23;14.15;;;;;;;2.96;57.66;98808.38;5090572;28;20039;-62
2021/01/28 04:18:17;;;;;;;24.83;15.50;;;;;;;3.00;58.29;98833.69;5090213;28;20412;-64
2021/01/28 04:20:42;;;;;;;23.67;14.73;;;;;;;3.04;57.58;98825.53;5090145;28;20125;-63
2021/01/28 04:23:10;;;;;;;24.77;14.10;;;;;;;3.00;58.06;98831.03;5090177;28;20124;-58
2021/01/28 04:25:40;;;;;;;26.23;14.18;;;;;;;2.92;58.54;98822.75;5102580;28;20511;-61
2021/01/28 04:28:05;;;;;;;26.08;15.35;;;;;;;2.87;58.49;98820.41;5090489;28;20036;-62
2021/01/28 04:30:33;;;;;;;27.73;15.50;;;;;;;2.67;59.07;98818.19;5090137;28;20031;-63
2021/01/28 04:33:03;;;;;;;25.60;14.90;;;;;;;2.64;59.31;98837.72;5090584;28;20043;-62
2021/01/28 04:35:28;;;;;;;27.27;15.63;;;;;;;2.34;59.67;98762.13;5091109;28;20043;-64
2021/01/28 04:37:54;;;;;;;24.48;14.27;;;;;;;2.66;59.70;98837.66;5089901;28;20036;-63
2021/01/28 04:40:31;;;;;;;27.65;15.20;;;;;;;2.65;60.04;98836.81;5109089;28;20036;-64
2021/01/28 04:43:02;;;;;;;25.73;15.23;;;;;;;2.60;60.07;98827.47;5110198;28;20042;-62
2021/01/28 04:45:31;;;;;;;24.65;14.95;;;;;;;2.14;60.56;98758.94;5108432;28;20035;-63
2021/01/28 04:47:59;;;;;;;26.42;15.45;;;;;;;2.39;60.08;98794.38;5109516;28;20107;-63
2021/01/28 04:50:33;;;;;;;25.70;14.93;;;;;;;2.71;60.50;98835.56;5110109;28;20054;-61
2021/01/28 04:53:04;;;;;;;25.15;15.13;;;;;;;2.66;60.38;98816.50;5110757;28;20040;-62
2021/01/28 04:55:43;;;;;;;25.70;15.35;;;;;;;2.78;60.50;98838.66;5108282;28;20042;-62
2021/01/28 04:58:10;;;;;;;28.50;16.23;;;;;;;2.64;60.20;98813.94;5109748;28;20043;-57
2021/01/28 05:00:36;;;;;;;28.98;16.50;;;;;;;2.70;59.92;98821.50;5110384;28;20042;-62
2021/01/28 05:03:42;;;;;;;25.77;16.00;;;;;;;2.38;61.17;98765.44;5110289;28;20056;-68
2021/01/28 05:06:08;;;;;;;24.70;15.35;;;;;;;2.64;60.67;98795.44;5107767;28;20412;-65
2021/01/28 05:08:34;;;;;;;30.02;16.95;;;;;;;2.66;60.24;98809.44;5109416;28;20031;-63
2021/01/28 05:11:00;;;;;;;27.17;15.68;;;;;;;2.62;60.70;98823.78;5109527;28;20089;-65
2021/01/28 05:13:34;;;;;;;25.38;15.73;;;;;;;2.74;60.76;98827.41;5109895;28;20040;-64
2021/01/28 05:16:18;;;;;;;26.10;15.80;;;;;;;2.67;61.00;98823.47;5109665;28;20126;-64
2021/01/28 05:18:56;;;;;;;24.98;15.40;;;;;;;2.71;60.96;98827.63;5107879;28;20496;-64
2021/01/28 05:21:24;;;;;;;21.45;11.98;;;;;;;2.72;60.76;98842.53;5109318;28;20043;-65
2021/01/28 05:24:00;;;;;;;27.33;14.88;;;;;;;2.61;61.03;98819.44;5109431;28;20036;-63
2021/01/28 05:26:31;;;;;;;27.15;15.63;;;;;;;2.62;61.39;98823.78;5109302;28;20047;-64
2021/01/28 05:29:13;;;;;;;28.98;15.15;;;;;;;2.30;62.00;98781.75;5097046;28;20040;-65
2021/01/28 05:31:38;;;;;;;26.85;14.90;;;;;;;2.60;61.23;98825.66;5089039;28;20417;-61
2021/01/28 05:34:07;;;;;;;26.05;14.88;;;;;;;2.52;61.72;98822.69;5089194;28;20036;-65
2021/01/28 05:36:33;;;;;;;28.02;16.55;;;;;;;2.45;61.97;98819.56;5092784;28;20035;-64
2021/01/28 05:39:16;;;;;;;28.90;17.08;;;;;;;2.49;62.45;98817.59;5093737;28;20089;-66
2021/01/28 05:41:47;;;;;;;33.40;18.02;;;;;;;2.44;62.74;98816.09;5092395;28;20048;-65
2021/01/28 05:44:27;;;;;;;32.30;15.23;;;;;;;2.47;62.60;98808.91;5092839;28;20501;-64
2021/01/28 05:47:12;;;;;;;28.80;18.02;;;;;;;2.37;63.41;98804.19;5092300;28;20471;-65
2021/01/28 05:49:42;;;;;;;28.15;14.35;;;;;;;2.53;62.83;98813.81;5075500;28;20028;-64
2021/01/28 05:52:29;;;;;;;29.50;16.58;;;;;;;2.50;62.98;98812.19;5093023;28;20036;-59
2021/01/28 05:55:13;;;;;;;28.77;16.08;;;;;;;2.33;63.14;98778.94;5092590;28;20038;-64
2021/01/28 05:57:54;;;;;;;31.92;16.95;;;;;;;2.55;62.78;98807.47;5092484;28;20063;-61
2021/01/28 06:00:56;;;;;;;32.70;16.55;;;;;;;2.16;63.31;98735.09;5093929;28;20040;-65
2021/01/28 06:03:52;;;;;;;32.47;17.58;;;;;;;2.60;62.77;98801.06;5091921;28;20056;-62
2021/01/28 06:06:20;;;;;;;31.37;17.63;;;;;;;2.13;62.51;98719.47;5077864;28;20251;-64
2021/01/28 06:09:23;;;;;;;31.08;16.42;;;;;;;2.77;62.56;98806.06;5113244;28;20036;-63
2021/01/28 06:12:00;;;;;;;29.17;16.40;;;;;;;2.75;62.55;98801.84;5111177;28;20035;-62
2021/01/28 06:14:41;;;;;;;32.67;16.17;;;;;;;2.35;62.85;98731.28;5118692;27;20036;-65
2021/01/28 06:17:28;;;;;;;26.70;14.25;;;;;;;2.74;62.63;98793.06;5121164;27;20042;-65
2021/01/28 06:19:56;;;;;;;24.20;13.68;;;;;;;2.78;62.65;98796.38;5122477;27;20036;-63
2021/01/28 06:23:03;;;;;;;25.50;15.38;;;;;;;2.67;62.63;98792.63;5120164;27;20050;-66
2021/01/28 06:25:51;;;;;;;;;;;;;;;2.82;62.13;98784.63;5121471;27;20084;-66
2021/01/28 06:28:26;;;;;;;29.10;15.57;;;;;;;2.78;62.26;98788.44;5104219;27;19919;-65
2021/01/28 06:31:28;;;;;;;27.50;15.10;;;;;;;2.86;62.82;98783.47;5110759;28;20070;-66
2021/01/28 06:34:13;;;;;;;26.75;14.95;;;;;;;2.91;62.45;98791.13;5098085;28;20067;-61
2021/01/28 06:36:44;;;;;;;29.70;15.63;;;;;;;2.97;62.49;98788.94;5092561;28;20043;-61
2021/01/28 06:39:18;;;;;;;28.27;16.63;;;;;;;2.90;62.33;98786.78;5092067;28;20460;-63
2021/01/28 06:42:11;;;;;;;29.77;15.75;;;;;;;2.81;62.88;98762.66;5110622;28;20037;-65
2021/01/28 06:44:45;;;;;;;30.08;15.55;;;;;;;2.51;63.22;98715.28;5108395;28;20485;-65
2021/01/28 06:47:17;;;;;;;27.45;15.43;;;;;;;2.96;63.09;98791.66;5111656;28;20031;-65
2021/01/28 06:49:50;;;;;;;26.15;15.70;;;;;;;3.08;63.10;98787.34;5112526;28;20031;-65
2021/01/28 06:52:30;;;;;;;24.95;15.40;;;;;;;3.16;63.04;98779.78;5110259;28;20039;-66
2021/01/28 06:55:05;;;;;;;28.55;14.88;;;;;;;3.27;61.96;98771.97;5112407;28;20088;-65
2021/01/28 06:57:43;;;;;;;29.77;17.05;;;;;;;3.24;62.44;98769.53;5111960;28;20042;-66
2021/01/28 07:00:09;;;;;;;26.35;14.88;;;;;;;3.20;62.04;98768.03;5112104;28;20068;-61
2021/01/28 07:02:43;;;;;;;29.20;15.10;;;;;;;3.22;62.16;98773.22;5109759;28;20083;-66
2021/01/28 07:05:30;;;;;;;32.05;16.95;;;;;;;3.17;62.34;98778.81;5111581;28;20081;-64
2021/01/28 07:08:12;;;;;;;25.08;14.90;;;;;;;3.11;62.83;98779.22;5111857;28;20472;-65
2021/01/28 07:10:40;;;;;;;30.55;15.80;;;;;;;3.16;62.67;98779.78;5093506;28;20039;-67
2021/01/28 07:13:10;;;;;;;28.77;15.52;;;;;;;3.11;62.73;98750.13;5110069;28;20044;-68
2021/01/28 07:15:36;;;;;;;28.70;16.25;;;;;;;3.19;62.49;98774.28;5111604;28;20035;-67
2021/01/28 07:18:15;;;;;;;28.15;16.52;;;;;;;3.24;63.38;98758.06;5104019;27;20042;-63
2021/01/28 07:20:58;;;;;;;27.50;15.48;;;;;;;3.35;62.96;98765.28;5123113;27;20070;-64
2021/01/28 07:23:39;;;;;;;27.98;15.80;;;;;;;3.44;62.46;98759.38;5116517;27;20111;-64
2021/01/28 07:26:07;;;;;;;27.58;15.80;;;;;;;3.34;62.71;98750.38;5106328;27;20023;-61
2021/01/28 07:28:33;;;;;;;28.33;16.42;;;;;;;3.30;63.27;98750.56;5112661;27;20042;-65
2021/01/28 07:31:07;;;;;;;25.88;15.48;;;;;;;3.22;64.07;98747.63;5111395;28;20031;-64
2021/01/28 07:33:40;;;;;;;27.95;16.10;;;;;;;3.33;63.23;98752.19;5093779;28;20130;-63
2021/01/28 07:36:23;;;;;;;30.38;15.30;;;;;;;3.24;63.54;98731.63;5101012;28;20690;-65
2021/01/28 07:39:00;;;;;;;28.65;15.13;;;;;;;3.30;63.48;98733.88;5090534;28;20485;-61
2021/01/28 07:41:54;;;;;;;28.65;15.40;;;;;;;3.22;64.06;98734.38;5117463;27;20038;-63
2021/01/28 07:44:34;;;;;;;28.48;15.75;;;;;;;3.32;63.99;98720.53;5114174;27;20047;-62
2021/01/28 07:47:03;;;;;;;28.88;14.77;;;;;;;3.37;63.60;98734.28;5112111;27;20035;-61
2021/01/28 07:49:31;;;;;;;27.58;15.13;;;;;;;3.24;64.06;98721.03;5130440;27;20605;-60
2021/01/28 07:52:02;;;;;;;26.77;14.98;;;;;;;3.25;64.16;98718.31;5130183;27;20042;-59
2021/01/28 07:54:28;;;;;;;25.23;14.10;;;;;;;3.31;63.75;98714.41;5118042;27;20085;-56
2021/01/28 07:56:58;;;;;;;26.75;15.23;;;;;;;3.25;63.86;98705.09;5117469;27;20494;-60
2021/01/28 07:59:29;;;;;;;16.35;6.82;;;;;;;3.55;63.14;98718.97;5124063;27;20051;-63
2021/01/28 08:02:09;;;;;;;30.13;14.98;;;;;;;3.41;64.06;98714.63;5095350;27;20035;-51
2021/01/28 08:04:44;;;;;;;20.05;11.25;;;;;;;3.22;63.58;98680.63;5105868;27;20040;-57
2021/01/28 08:07:11;;;;;;;25.85;14.32;;;;;;;3.23;64.03;98711.41;5116661;27;20634;-55
2021/01/28 08:09:46;;;;;;;30.58;16.63;;;;;;;3.18;64.51;98718.81;5123078;27;20100;-51
2021/01/28 08:12:11;;;;;;;29.48;15.82;;;;;;;3.18;64.22;98711.75;5099351;27;20031;-57
2021/01/28 08:14:43;;;;;;;28.27;15.13;;;;;;;3.21;64.87;98711.53;5103845;27;20027;-58
2021/01/28 08:17:12;;;;;;;30.92;16.10;;;;;;;3.20;64.57;98699.25;5105356;27;20813;-52
2021/01/28 08:19:37;;;;;;;25.92;15.95;;;;;;;3.15;64.29;98702.22;5104551;27;20416;-52
2021/01/28 08:22:12;;;;;;;25.88;16.10;;;;;;;3.17;64.99;98696.84;5119263;27;20492;-60
2021/01/28 08:24:39;;;;;;;29.83;17.40;;;;;;;3.19;64.98;98687.00;5114361;27;20184;-54
2021/01/28 08:27:40;;;;;;;28.65;15.68;;;;;;;2.73;64.90;98611.63;5102741;27;20031;-55
2021/01/28 08:30:06;;;;;;;26.20;15.70;;;;;;;3.19;64.58;98692.28;5029636;28;20444;-54
2021/01/28 08:32:32;;;;;;;27.95;16.23;;;;;;;3.11;64.81;98684.88;5093336;28;20042;-56
2021/01/28 08:35:08;;;;;;;30.20;16.38;;;;;;;3.08;64.73;98674.50;5112503;27;20121;-59
2021/01/28 08:37:34;;;;;;;29.02;15.80;;;;;;;3.14;64.60;98684.66;5111971;27;20034;-55
2021/01/28 08:40:00;;;;;;;29.77;16.73;;;;;;;3.13;65.13;98674.16;5109367;27;20048;-62
2021/01/28 08:42:27;;;;;;;28.88;16.83;;;;;;;3.07;65.18;98674.59;5114749;27;20027;-62
2021/01/28 08:45:13;;;;;;;28.25;16.48;;;;;;;3.08;65.61;98668.34;5116218;27;20118;-58
2021/01/28 08:47:39;;;;;;;23.17;12.68;;;;;;;3.26;64.87;98668.91;5106964;27;20118;-56
2021/01/28 08:50:15;;;;;;;28.67;15.88;;;;;;;3.10;65.21;98651.44;5122517;27;20070;-56
2021/01/28 08:52:44;;;;;;;21.02;11.65;;;;;;;3.27;64.53;98687.31;5119764;27;20198;-53
2021/01/28 08:55:25;;;;;;;26.35;15.73;;;;;;;3.13;65.46;98675.03;5111427;28;20148;-55
2021/01/28 08:57:54;;;;;;;27.67;14.23;;;;;;;3.14;65.46;98679.38;5121382;28;20092;-61
2021/01/28 09:00:21;;;;;;;26.58;15.95;;;;;;;3.11;65.19;98676.94;5113782;28;20047;-61
2021/01/28 09:02:51;;;;;;;23.60;15.10;;;;;;;3.12;65.05;98675.13;5101053;28;20064;-57
2021/01/28 09:05:16;;;;;;;27.80;15.57;;;;;;;2.81;64.98;98600.53;5123328;28;20055;-63
2021/01/28 09:07:52;;;;;;;29.85;16.58;;;;;;;3.24;65.05;98673.44;5108042;28;20467;-53
2021/01/28 09:10:32;;;;;;;26.50;15.32;;;;;;;3.18;65.31;98652.69;5104003;27;20028;-61
2021/01/28 09:13:33;;;;;;;24.58;12.55;;;;;;;3.36;64.97;98661.16;5128204;27;20034;-57
2021/01/28 09:16:11;;;;;;;25.42;14.50;;;;;;;3.28;64.92;98651.97;5020506;28;20034;-55
2021/01/28 09:18:40;;;;;;;21.30;13.88;;;;;;;3.33;64.85;98656.06;5107264;27;20043;-58
2021/01/28 09:21:17;;;;;;;22.20;14.07;;;;;;;3.28;65.32;98648.47;5129388;27;20024;-57
2021/01/28 09:24:13;;;;;;;18.40;10.63;;;;;;;3.40;65.01;98652.06;5109780;27;20060;-59
2021/01/28 09:26:39;;;;;;;23.33;11.32;;;;;;;3.39;65.11;98648.56;5116414;27;20144;-62
2021/01/28 09:29:31;;;;;;;22.92;14.02;;;;;;;3.29;65.52;98640.41;5120233;27;20034;-55
2021/01/28 09:32:24;;;;;;;21.42;13.73;;;;;;;3.51;65.13;98643.38;5122611;27;20031;-53
2021/01/28 09:35:08;;;;;;;23.55;12.65;;;;;;;3.31;64.59;98611.22;5102167;27;20501;-53
2021/01/28 09:37:45;;;;;;;25.67;13.63;;;;;;;3.44;65.00;98638.50;5113828;27;20035;-58
2021/01/28 09:40:29;;;;;;;22.30;13.32;;;;;;;3.54;65.59;98643.16;5107918;27;20039;-52
2021/01/28 09:43:26;;;;;;;21.10;13.50;;;;;;;3.65;65.04;98637.09;5113375;27;20031;-55
2021/01/28 09:46:19;;;;;;;21.02;12.20;;;;;;;3.76;64.69;98637.19;5101686;27;20416;-61
2021/01/28 09:48:46;;;;;;;24.02;14.05;;;;;;;3.66;64.43;98618.44;5132775;27;20062;-61
2021/01/28 09:51:14;;;;;;;20.67;12.93;;;;;;;3.80;64.25;98636.00;5098751;27;20027;-61
2021/01/28 09:53:58;;;;;;;22.35;12.95;;;;;;;3.80;64.54;98630.69;5111190;27;20170;-58
2021/01/28 09:56:23;;;;;;;21.77;13.57;;;;;;;3.47;64.58;98586.31;5115204;27;20408;-58
2021/01/28 09:58:48;;;;;;;24.00;13.43;;;;;;;3.69;64.52;98631.47;5112944;27;20039;-61
2021/01/28 10:01:14;;;;;;;21.77;13.88;;;;;;;3.67;65.34;98616.66;5121356;27;20035;-55
2021/01/28 10:03:39;;;;;;;23.40;13.88;;;;;;;3.59;65.08;98614.56;5118774;27;20063;-56
2021/01/28 10:06:05;;;;;;;21.30;12.85;;;;;;;3.61;65.18;98612.66;5113556;27;20051;-62
2021/01/28 10:08:30;;;;;;;22.30;14.05;;;;;;;3.58;65.27;98613.69;5122724;27;20031;-61
2021/01/28 10:10:56;;;;;;;21.55;13.35;;;;;;;3.73;65.53;98630.28;5108907;27;20039;-59
2021/01/28 10:13:21;;;;;;;18.80;10.63;;;;;;;3.19;64.83;98517.72;5127825;27;20520;-58
2021/01/28 10:15:46;;;;;;;25.55;13.80;;;;;;;3.82;65.03;98620.84;5119060;27;20027;-60
2021/01/28 10:18:12;;;;;;;22.25;13.23;;;;;;;3.79;64.95;98594.59;5114361;27;20031;-62
2021/01/28 10:20:40;;;;;;;23.30;12.35;;;;;;;3.32;64.92;98516.81;5111582;28;20059;-66
2021/01/28 10:23:06;;;;;;;13.15;8.27;;;;;;;4.00;65.13;98593.97;5109271;27;20034;-70
2021/01/28 10:25:32;;;;;;;20.33;11.35;;;;;;;3.83;65.12;98590.75;5126849;27;20023;-65
2021/01/28 10:28:00;;;;;;;18.33;10.90;;;;;;;3.77;65.53;98591.22;5122068;27;20084;-67
2021/01/28 10:30:26;;;;;;;18.98;11.30;;;;;;;3.85;65.38;98593.31;5120636;27;20035;-59
2021/01/28 10:32:56;;;;;;;19.13;11.18;;;;;;;3.80;65.50;98583.03;5115284;27;20035;-63
2021/01/28 10:35:29;;;;;;;15.65;10.55;;;;;;;3.91;65.00;98587.56;5110136;27;20042;-59
2021/01/28 10:37:55;;;;;;;14.05;8.98;;;;;;;3.85;65.15;98593.31;5106284;27;20124;-65
2021/01/28 10:40:21;;;;;;;14.43;9.98;;;;;;;3.76;65.75;98573.63;5118000;27;20084;-62
2021/01/28 10:42:47;;;;;;;14.88;9.68;;;;;;;3.71;65.54;98575.78;5130022;27;20035;-62
2021/01/28 10:45:19;;;;;;;12.10;7.18;;;;;;;3.70;65.20;98551.09;5110891;27;20038;-77
2021/01/28 10:47:44;;;;;;;14.18;7.93;;;;;;;3.83;65.31;98582.81;5091964;27;20395;-75
2021/01/28 10:50:10;;;;;;;13.95;9.40;;;;;;;3.52;65.84;98526.81;5120490;27;20042;-64
2021/01/28 10:52:36;;;;;;;15.90;9.48;;;;;;;3.75;66.22;98561.34;5109322;27;20626;-68
2021/01/28 10:55:05;;;;;;;15.20;8.43;;;;;;;3.93;65.56;98559.16;5126569;27;20495;-63
2021/01/28 10:57:31;;;;;;;14.90;9.32;;;;;;;3.84;65.56;98554.56;5104687;27;20031;-64
2021/01/28 10:59:56;;;;;;;15.55;10.40;;;;;;;3.66;65.70;98519.69;5110319;27;20038;-60
2021/01/28 11:02:21;;;;;;;17.83;10.43;;;;;;;3.84;66.27;98549.25;5111886;27;20032;-73
2021/01/28 11:04:47;;;;;;;17.77;10.70;;;;;;;3.90;65.71;98538.19;5125559;27;20115;-52
2021/01/28 11:07:12;;;;;;;17.40;10.40;;;;;;;3.71;65.85;98491.06;5101817;27;20136;-65
2021/01/28 11:09:40;;;;;;;17.83;9.57;;;;;;;4.07;65.16;98533.47;5119834;27;20443;-64
2021/01/28 11:12:06;;;;;;;17.20;9.73;;;;;;;3.94;65.33;98509.69;5102032;27;20028;-61
2021/01/28 11:14:33;;;;;;;17.23;10.80;;;;;;;4.09;65.57;98526.25;5110030;27;20411;-64
2021/01/28 11:16:59;;;;;;;19.95;9.63;;;;;;;4.18;65.01;98548.56;5124223;27;20468;-65
2021/01/28 11:19:24;;;;;;;17.23;10.13;;;;;;;3.96;65.42;98527.16;5103429;27;20031;-62
2021/01/28 11:21:50;;;;;;;14.77;9.82;;;;;;;4.05;65.66;98530.91;5131064;27;20039;-60
2021/01/28 11:24:15;;;;;;;18.88;9.65;;;;;;;4.05;65.39;98541.50;5112951;27;20031;-61
2021/01/28 11:26:43;;;;;;;15.27;9.18;;;;;;;3.87;65.77;98512.81;5109096;27;20528;-62
2021/01/28 11:29:09;;;;;;;20.63;9.63;;;;;;;4.02;65.62;98539.97;5127723;27;20050;-63
2021/01/28 11:31:36;;;;;;;20.58;9.43;;;;;;;3.87;65.56;98528.69;5117886;27;20027;-65
2021/01/28 11:34:03;;;;;;;13.23;7.93;;;;;;;3.94;65.52;98544.97;5119005;27;20088;-62
2021/01/28 11:36:29;;;;;;;14.05;9.25;;;;;;;3.87;65.67;98546.38;5120885;27;20042;-58
2021/01/28 11:38:54;;;;;;;17.45;9.65;;;;;;;3.68;66.19;98531.84;5113269;27;20046;-61
2021/01/28 11:41:27;;;;;;;15.40;8.82;;;;;;;3.74;65.87;98543.78;5125155;27;20066;-62
2021/01/28 11:43:53;;;;;;;14.38;9.10;;;;;;;3.78;66.35;98549.72;5119917;27;20038;-60
2021/01/28 11:46:38;;;;;;;16.48;9.75;;;;;;;3.85;66.37;98543.00;5098152;28;20063;-65